Ulladulla, Australia
Current Conditions -  °F | °C
As of 1:00 AM on Saturday 01 Nov 2014 (Local Time) from YSNW Reporting Station
Clear Clear  
Wind Chill: 66°   Ceiling: Unl
Heat Index: 66°   Visibility: 6mi
Dew Point: 52°   Wind: 2mph
Humidity: 60%   Direction: 290°WNW
Pressure: 29.65"   Gusts: NA
Location:  35.36°S, 150.47°E
Report Text: YSNW 311400Z AUTO 29002KT 9999 // NCD 19/11 Q1004
Loading
Personal Weather Stations






























Interactive Weather Map
Tropical Storm Tracking
New forecast layout! Learn more

10-Day Weather Forecast

Advertisements
Track Severe Weather on mobile